Time;durP1;ratioP1;P1;durP2;ratioP2;P2;SDS_P1;SDS_P2;PMS_P1;PMS_P2;Temp;Humidity;BMP_temperature;BMP_pressure;BME280_temperature;BME280_humidity;BME280_pressure;Samples;Min_cycle;Max_cycle;Signal;HPM_P1;HPM_P2
2022/02/21 00:01:58;;;;;;;;;;;22.20;46.20;;;;;;5156909;27;19923;-48
2022/02/21 00:04:25;;;;;;;;;;;22.20;46.10;;;;;;5157780;27;19996;-46
2022/02/21 00:06:53;;;;;;;;;;;22.20;46.20;;;;;;5156941;27;19967;-45
2022/02/21 00:09:19;;;;;;;;;;;22.20;46.20;;;;;;5156524;27;19926;-47
2022/02/21 00:11:46;;;;;;;;;;;22.20;46.10;;;;;;5157104;27;19968;-45
2022/02/21 00:14:14;;;;;;;;;;;22.20;46.20;;;;;;5157072;27;19991;-43
2022/02/21 00:16:41;;;;;;;;;;;22.20;46.10;;;;;;5155473;27;19923;-45
2022/02/21 00:19:08;;;;;;;;;;;22.20;46.10;;;;;;5156399;27;20378;-46
2022/02/21 00:21:35;;;;;;;;;;;22.20;46.20;;;;;;5156732;27;19927;-45
2022/02/21 00:24:01;;;;;;;;;;;22.20;46.20;;;;;;5156553;27;19923;-44
2022/02/21 00:26:29;;;;;;;;;;;22.20;46.10;;;;;;5155651;27;20390;-45
2022/02/21 00:28:56;;;;;;;;;;;22.20;46.20;;;;;;5156820;27;20332;-45
2022/02/21 00:31:23;;;;;;;;;;;22.20;46.10;;;;;;5155581;27;19977;-45
2022/02/21 00:33:50;;;;;;;;;;;22.20;46.20;;;;;;5156620;27;20328;-45
2022/02/21 00:36:18;;;;;;;;;;;22.20;46.10;;;;;;5156895;27;19923;-44
2022/02/21 00:38:45;;;;;;;;;;;22.20;46.20;;;;;;5156504;27;19926;-45
2022/02/21 00:41:12;;;;;;;;;;;22.20;46.20;;;;;;5155812;27;20336;-44
2022/02/21 00:43:39;;;;;;;;;;;22.10;46.10;;;;;;5156191;27;19968;-47
2022/02/21 00:46:06;;;;;;;;;;;22.20;46.20;;;;;;5155255;27;20037;-45
2022/02/21 00:48:33;;;;;;;;;;;22.20;46.10;;;;;;5156661;27;19923;-48
2022/02/21 00:51:00;;;;;;;;;;;22.10;46.00;;;;;;5156315;27;19923;-45
2022/02/21 00:53:27;;;;;;;;;;;22.10;46.10;;;;;;5155873;27;19975;-45
2022/02/21 00:55:54;;;;;;;;;;;22.10;46.00;;;;;;5155407;27;19945;-44
2022/02/21 00:58:21;;;;;;;;;;;22.10;46.10;;;;;;5156159;27;19927;-44
2022/02/21 01:00:48;;;;;;;;;;;22.10;46.00;;;;;;5154779;27;19927;-44
2022/02/21 01:03:15;;;;;;;;;;;22.20;46.20;;;;;;5155803;27;19931;-43
2022/02/21 01:05:42;;;;;;;;;;;22.10;46.10;;;;;;5155777;27;20375;-48
2022/02/21 01:08:09;;;;;;;;;;;22.10;46.10;;;;;;5156053;27;20331;-47
2022/02/21 01:10:37;;;;;;;;;;;22.10;46.10;;;;;;5155447;27;19923;-43
2022/02/21 01:13:05;;;;;;;;;;;22.10;46.10;;;;;;5155079;27;19927;-48
2022/02/21 01:15:32;;;;;;;;;;;22.10;46.10;;;;;;5154877;27;19923;-43
2022/02/21 01:17:59;;;;;;;;;;;22.10;46.10;;;;;;5155335;27;19967;-43
2022/02/21 01:20:26;;;;;;;;;;;22.10;46.10;;;;;;5155891;27;19923;-48
2022/02/21 01:22:53;;;;;;;;;;;22.10;46.10;;;;;;5137314;27;19923;-45
2022/02/21 01:25:20;;;;;;;;;;;22.10;46.00;;;;;;5155047;27;19923;-44
2022/02/21 01:27:47;;;;;;;;;;;22.10;46.10;;;;;;5155626;27;19962;-45
2022/02/21 01:30:15;;;;;;;;;;;22.10;46.10;;;;;;5155753;27;19927;-48
2022/02/21 01:32:42;;;;;;;;;;;22.10;46.10;;;;;;5154550;27;20358;-46
2022/02/21 01:35:09;;;;;;;;;;;22.10;46.00;;;;;;5155671;27;19923;-43
2022/02/21 01:37:36;;;;;;;;;;;22.10;46.00;;;;;;5155331;27;19931;-45
2022/02/21 01:40:07;;;;;;;;;;;22.10;46.00;;;;;;5155545;27;19975;-44
2022/02/21 01:42:35;;;;;;;;;;;22.10;46.00;;;;;;5154874;27;19987;-45
2022/02/21 01:45:03;;;;;;;;;;;22.10;46.00;;;;;;5155277;27;19927;-44
2022/02/21 01:47:30;;;;;;;;;;;22.10;46.00;;;;;;5154355;27;19923;-45
2022/02/21 01:49:57;;;;;;;;;;;22.10;46.00;;;;;;5155235;27;19958;-45
2022/02/21 01:52:24;;;;;;;;;;;22.10;46.00;;;;;;5155311;27;19923;-44
2022/02/21 01:54:51;;;;;;;;;;;22.10;46.00;;;;;;5155437;27;19976;-42
2022/02/21 01:57:18;;;;;;;;;;;22.10;46.00;;;;;;5154748;27;19923;-46
2022/02/21 01:59:45;;;;;;;;;;;22.10;46.00;;;;;;5155605;27;19927;-47
2022/02/21 02:02:12;;;;;;;;;;;22.10;46.00;;;;;;5154212;27;19947;-45
2022/02/21 02:04:39;;;;;;;;;;;22.10;46.00;;;;;;5155642;27;19927;-45
2022/02/21 02:07:06;;;;;;;;;;;22.10;46.00;;;;;;5155344;27;19927;-44
2022/02/21 02:09:33;;;;;;;;;;;22.10;46.00;;;;;;5155366;27;19930;-46
2022/02/21 02:12:00;;;;;;;;;;;22.10;46.00;;;;;;5154513;27;20303;-42
2022/02/21 02:14:37;;;;;;;;;;;22.10;46.00;;;;;;5155288;27;20373;-44
2022/02/21 02:17:06;;;;;;;;;;;22.10;46.00;;;;;;5154229;27;20302;-45
2022/02/21 02:19:33;;;;;;;;;;;22.10;46.00;;;;;;5154977;27;19923;-43
2022/02/21 02:22:26;;;;;;;;;;;22.10;46.00;;;;;;5155130;27;20028;-45
2022/02/21 02:24:53;;;;;;;;;;;22.10;46.00;;;;;;5154728;27;19968;-43
2022/02/21 02:27:21;;;;;;;;;;;22.10;46.00;;;;;;5158284;27;19926;-49
2022/02/21 02:29:49;;;;;;;;;;;22.10;46.00;;;;;;5159155;27;19975;-47
2022/02/21 02:32:16;;;;;;;;;;;22.10;46.00;;;;;;5139555;27;19968;-45
2022/02/21 02:34:44;;;;;;;;;;;22.10;46.00;;;;;;5159005;27;20382;-45
2022/02/21 02:37:11;;;;;;;;;;;22.10;46.00;;;;;;5158689;27;20382;-44
2022/02/21 02:39:39;;;;;;;;;;;22.10;46.00;;;;;;5159159;27;19923;-44
2022/02/21 02:42:07;;;;;;;;;;;22.10;46.00;;;;;;5157854;27;20390;-46
2022/02/21 02:44:34;;;;;;;;;;;22.10;46.00;;;;;;5159678;27;20019;-45
2022/02/21 02:47:05;;;;;;;;;;;22.10;46.00;;;;;;5157494;27;19929;-47
2022/02/21 02:49:33;;;;;;;;;;;22.10;46.00;;;;;;5158467;27;19930;-46
2022/02/21 02:52:00;;;;;;;;;;;22.10;46.00;;;;;;5158240;27;19962;-48
2022/02/21 02:54:27;;;;;;;;;;;22.10;46.00;;;;;;5158664;27;19927;-46
2022/02/21 02:56:55;;;;;;;;;;;22.10;46.00;;;;;;5157452;27;19987;-47
2022/02/21 02:59:25;;;;;;;;;;;22.10;46.00;;;;;;5158523;27;20312;-46
2022/02/21 03:01:52;;;;;;;;;;;22.00;45.90;;;;;;5157565;27;20429;-46
2022/02/21 03:04:20;;;;;;;;;;;22.10;46.00;;;;;;5158485;27;20335;-50
2022/02/21 03:06:47;;;;;;;;;;;22.00;45.90;;;;;;5158121;27;20413;-47
2022/02/21 03:09:14;;;;;;;;;;;22.10;46.00;;;;;;5158090;27;19977;-45
2022/02/21 03:11:41;;;;;;;;;;;22.10;46.00;;;;;;5157453;27;20448;-47
2022/02/21 03:14:10;;;;;;;;;;;22.10;46.00;;;;;;5158285;27;19923;-48
2022/02/21 03:16:37;;;;;;;;;;;22.10;46.00;;;;;;5157515;27;19923;-47
2022/02/21 03:19:04;;;;;;;;;;;22.10;46.00;;;;;;5157260;27;19923;-49
2022/02/21 03:21:31;;;;;;;;;;;22.10;46.00;;;;;;5158414;27;19923;-44
2022/02/21 03:23:58;;;;;;;;;;;22.10;45.90;;;;;;5158314;27;20331;-50
2022/02/21 03:26:25;;;;;;;;;;;22.00;45.80;;;;;;5158017;27;19927;-43
2022/02/21 03:28:52;;;;;;;;;;;22.10;45.90;;;;;;5157224;27;20314;-45
2022/02/21 03:31:19;;;;;;;;;;;22.00;45.90;;;;;;5157974;27;19995;-43
2022/02/21 03:33:46;;;;;;;;;;;22.00;46.50;;;;;;5156740;27;19927;-44
2022/02/21 03:36:13;;;;;;;;;;;22.00;45.90;;;;;;5156895;27;19923;-47
2022/02/21 03:38:42;;;;;;;;;;;22.00;45.90;;;;;;5157619;27;19923;-48
2022/02/21 03:41:09;;;;;;;;;;;22.00;45.90;;;;;;5157738;27;19923;-45
2022/02/21 03:43:37;;;;;;;;;;;22.00;45.90;;;;;;5156646;27;20443;-45
2022/02/21 03:46:04;;;;;;;;;;;22.00;45.90;;;;;;5157653;27;19954;-45
2022/02/21 03:48:31;;;;;;;;;;;22.00;45.90;;;;;;5156124;27;19968;-45
2022/02/21 03:50:58;;;;;;;;;;;22.10;46.00;;;;;;5157598;27;20007;-47
2022/02/21 03:53:25;;;;;;;;;;;22.00;45.90;;;;;;5157382;27;19923;-45
2022/02/21 03:55:55;;;;;;;;;;;22.00;45.80;;;;;;5157646;27;19930;-49
2022/02/21 03:58:22;;;;;;;;;;;22.00;45.90;;;;;;5156474;27;19923;-46
2022/02/21 04:00:49;;;;;;;;;;;22.00;45.90;;;;;;5138680;27;20366;-45
2022/02/21 04:03:16;;;;;;;;;;;22.00;45.90;;;;;;5156145;27;19995;-46
2022/02/21 04:05:43;;;;;;;;;;;22.10;46.50;;;;;;5157488;27;19981;-46
2022/02/21 04:08:10;;;;;;;;;;;22.00;45.80;;;;;;5156954;27;19970;-44
2022/02/21 04:10:37;;;;;;;;;;;22.00;45.80;;;;;;5157180;27;19923;-44
2022/02/21 04:13:04;;;;;;;;;;;22.10;45.90;;;;;;5156479;27;20329;-45
2022/02/21 04:15:31;;;;;;;;;;;22.00;45.80;;;;;;5156743;27;20382;-50
2022/02/21 04:17:58;;;;;;;;;;;22.00;45.80;;;;;;5155350;27;19923;-46
2022/02/21 04:20:30;;;;;;;;;;;22.00;45.80;;;;;;5156619;27;20402;-47
2022/02/21 04:22:57;;;;;;;;;;;22.00;45.80;;;;;;5156487;27;19923;-47
2022/02/21 04:25:24;;;;;;;;;;;22.00;45.80;;;;;;5156900;27;20331;-46
2022/02/21 04:27:52;;;;;;;;;;;22.00;45.80;;;;;;5155716;27;19927;-46
2022/02/21 04:30:21;;;;;;;;;;;22.00;45.80;;;;;;5156433;27;19923;-46
2022/02/21 04:32:49;;;;;;;;;;;22.00;45.80;;;;;;5155294;27;20000;-49
2022/02/21 04:35:16;;;;;;;;;;;22.00;45.80;;;;;;5156368;27;19923;-45
2022/02/21 04:37:44;;;;;;;;;;;22.00;45.80;;;;;;5156865;27;19923;-49
2022/02/21 04:40:13;;;;;;;;;;;22.00;45.80;;;;;;5156202;27;19923;-44
2022/02/21 04:42:40;;;;;;;;;;;22.00;45.80;;;;;;5155765;27;20704;-45
2022/02/21 04:45:07;;;;;;;;;;;22.00;45.80;;;;;;5156501;27;19992;-43
2022/02/21 04:47:34;;;;;;;;;;;22.00;45.80;;;;;;5155458;27;20426;-47
2022/02/21 04:50:03;;;;;;;;;;;22.00;45.80;;;;;;5135398;27;19923;-43
2022/02/21 04:52:30;;;;;;;;;;;22.00;45.80;;;;;;5135132;27;19924;-46
2022/02/21 04:54:57;;;;;;;;;;;22.00;45.80;;;;;;5135219;27;19930;-46
2022/02/21 04:57:24;;;;;;;;;;;22.00;45.80;;;;;;5117204;27;19924;-44
2022/02/21 04:59:51;;;;;;;;;;;22.00;45.80;;;;;;5154496;27;19923;-46
2022/02/21 05:02:18;;;;;;;;;;;22.00;45.80;;;;;;5156108;27;19923;-43
2022/02/21 05:04:45;;;;;;;;;;;22.00;45.80;;;;;;5154582;27;19967;-51
2022/02/21 05:07:13;;;;;;;;;;;22.00;46.40;;;;;;5156057;27;19923;-47
2022/02/21 05:09:41;;;;;;;;;;;22.00;46.00;;;;;;5155719;27;20382;-46
2022/02/21 05:12:08;;;;;;;;;;;22.00;45.80;;;;;;5155627;27;19923;-44
2022/02/21 05:14:35;;;;;;;;;;;22.00;45.80;;;;;;5155200;27;19958;-43
2022/02/21 05:17:03;;;;;;;;;;;22.00;45.90;;;;;;5155598;27;20442;-45
2022/02/21 05:19:30;;;;;;;;;;;22.00;45.80;;;;;;5154142;27;19923;-43
2022/02/21 05:21:57;;;;;;;;;;;22.00;45.80;;;;;;5137350;27;19931;-45
2022/02/21 05:24:25;;;;;;;;;;;22.00;45.80;;;;;;5155803;27;19971;-45
2022/02/21 05:26:52;;;;;;;;;;;22.00;45.80;;;;;;5155670;27;19968;-44
2022/02/21 05:29:20;;;;;;;;;;;22.00;45.80;;;;;;5154968;27;19948;-44
2022/02/21 05:31:47;;;;;;;;;;;22.00;45.80;;;;;;5155352;27;20454;-45
2022/02/21 05:34:14;;;;;;;;;;;22.00;45.80;;;;;;5154570;27;19923;-45
2022/02/21 05:36:41;;;;;;;;;;;22.00;45.80;;;;;;5155321;27;20394;-48
2022/02/21 05:39:08;;;;;;;;;;;22.00;45.80;;;;;;5155533;27;19923;-46
2022/02/21 05:41:36;;;;;;;;;;;22.00;45.80;;;;;;5137262;27;20327;-43
2022/02/21 05:44:03;;;;;;;;;;;22.00;45.80;;;;;;5154802;27;19931;-45
2022/02/21 05:46:30;;;;;;;;;;;22.00;45.80;;;;;;5155238;27;20378;-46
2022/02/21 05:48:58;;;;;;;;;;;22.00;45.80;;;;;;5154033;27;19976;-44
2022/02/21 05:51:25;;;;;;;;;;;22.00;45.80;;;;;;5155346;27;19966;-44
2022/02/21 05:53:52;;;;;;;;;;;22.00;45.80;;;;;;5155173;27;20435;-44
2022/02/21 05:56:19;;;;;;;;;;;22.00;45.80;;;;;;5155347;27;20347;-45
2022/02/21 05:58:46;;;;;;;;;;;22.00;46.40;;;;;;5156596;27;20324;-45
2022/02/21 06:01:13;;;;;;;;;;;22.00;45.80;;;;;;5159351;27;19927;-49
2022/02/21 06:03:42;;;;;;;;;;;22.00;45.80;;;;;;5158190;27;19923;-48
2022/02/21 06:06:09;;;;;;;;;;;22.00;45.80;;;;;;5159323;27;19929;-46
2022/02/21 06:08:36;;;;;;;;;;;22.00;45.80;;;;;;5159615;27;19923;-44
2022/02/21 06:11:03;;;;;;;;;;;22.00;45.80;;;;;;5159536;27;19923;-48
2022/02/21 06:13:30;;;;;;;;;;;21.90;45.80;;;;;;5158902;27;19949;-46
2022/02/21 06:15:58;;;;;;;;;;;21.90;45.80;;;;;;5141080;27;19923;-49
2022/02/21 06:18:25;;;;;;;;;;;22.00;45.80;;;;;;5140512;27;19926;-45
2022/02/21 06:20:53;;;;;;;;;;;21.90;45.70;;;;;;5139753;27;19923;-46
2022/02/21 06:23:20;;;;;;;;;;;21.90;45.80;;;;;;5158765;27;19968;-46
2022/02/21 06:25:47;;;;;;;;;;;21.90;45.80;;;;;;5158820;27;19973;-47
2022/02/21 06:28:14;;;;;;;;;;;21.90;45.70;;;;;;5159162;27;20361;-49
2022/02/21 06:30:41;;;;;;;;;;;22.00;45.80;;;;;;5158643;27;19967;-51
2022/02/21 06:33:08;;;;;;;;;;;21.90;45.70;;;;;;5140956;27;19966;-46
2022/02/21 06:35:35;;;;;;;;;;;21.90;45.80;;;;;;5153664;27;20046;-45
2022/02/21 06:38:04;;;;;;;;;;;21.90;45.70;;;;;;5158683;27;20427;-45
2022/02/21 06:40:31;;;;;;;;;;;21.90;45.70;;;;;;5158478;27;20374;-46
2022/02/21 06:42:59;;;;;;;;;;;21.90;45.70;;;;;;5158525;27;19922;-45
2022/02/21 06:45:27;;;;;;;;;;;21.90;45.70;;;;;;5158490;27;19923;-46
2022/02/21 06:47:54;;;;;;;;;;;21.90;45.70;;;;;;5139319;27;19923;-47
2022/02/21 06:50:22;;;;;;;;;;;22.00;45.80;;;;;;5157485;27;19948;-47
2022/02/21 06:52:50;;;;;;;;;;;22.00;45.80;;;;;;5158173;27;20397;-44
2022/02/21 06:55:17;;;;;;;;;;;22.00;45.80;;;;;;5158645;27;19963;-47
2022/02/21 06:57:45;;;;;;;;;;;21.90;45.70;;;;;;5158431;27;19923;-47
2022/02/21 07:00:13;;;;;;;;;;;22.00;45.80;;;;;;5139768;27;20450;-46
2022/02/21 07:02:40;;;;;;;;;;;22.00;45.70;;;;;;5147382;27;20010;-46
2022/02/21 07:05:07;;;;;;;;;;;22.00;45.70;;;;;;5145666;27;20402;-45
2022/02/21 07:07:34;;;;;;;;;;;22.00;45.70;;;;;;5158351;27;19976;-44
2022/02/21 07:10:03;;;;;;;;;;;22.00;45.70;;;;;;5156836;27;19923;-45
2022/02/21 07:12:30;;;;;;;;;;;22.00;45.70;;;;;;5158281;27;20303;-45
2022/02/21 07:14:57;;;;;;;;;;;22.00;45.60;;;;;;5158259;27;20386;-46
2022/02/21 07:17:24;;;;;;;;;;;22.00;45.60;;;;;;5157135;27;20424;-46
2022/02/21 07:19:53;;;;;;;;;;;22.00;45.60;;;;;;5156279;27;19923;-47
2022/02/21 07:22:23;;;;;;;;;;;22.00;45.60;;;;;;5157569;27;19923;-45
2022/02/21 07:24:50;;;;;;;;;;;22.00;45.60;;;;;;5158038;27;19973;-47
2022/02/21 07:27:17;;;;;;;;;;;22.00;45.60;;;;;;5157565;27;20374;-46
2022/02/21 07:29:44;;;;;;;;;;;22.00;45.60;;;;;;5157958;27;19927;-47
2022/02/21 07:32:11;;;;;;;;;;;22.00;45.60;;;;;;5156862;27;20379;-47
2022/02/21 07:34:38;;;;;;;;;;;22.00;45.50;;;;;;5156436;27;19927;-47
2022/02/21 07:37:06;;;;;;;;;;;22.00;45.50;;;;;;5157467;27;19935;-46
2022/02/21 07:39:33;;;;;;;;;;;22.00;45.50;;;;;;5157456;27;20431;-46
2022/02/21 07:42:00;;;;;;;;;;;22.00;45.50;;;;;;5157764;27;20279;-46
2022/02/21 07:44:27;;;;;;;;;;;22.00;45.50;;;;;;5157655;27;20059;-44
2022/02/21 07:46:54;;;;;;;;;;;22.00;45.50;;;;;;5157616;27;20010;-50
2022/02/21 07:49:23;;;;;;;;;;;22.10;45.50;;;;;;5157070;27;19946;-44
2022/02/21 07:51:50;;;;;;;;;;;22.10;45.50;;;;;;5156728;27;19968;-43
2022/02/21 07:54:17;;;;;;;;;;;22.10;45.50;;;;;;5157934;27;19927;-47
2022/02/21 07:57:06;;;;;;;;;;;22.10;45.40;;;;;;5157421;27;20018;-46
2022/02/21 07:59:33;;;;;;;;;;;22.10;45.40;;;;;;5156928;27;19952;-48
2022/02/21 08:02:00;;;;;;;;;;;22.10;45.40;;;;;;5157240;27;19950;-46
2022/02/21 08:04:27;;;;;;;;;;;22.10;45.40;;;;;;5156544;27;19927;-45
2022/02/21 08:06:54;;;;;;;;;;;22.10;45.40;;;;;;5156073;27;20340;-43
2022/02/21 08:09:21;;;;;;;;;;;22.10;45.40;;;;;;5156923;27;19929;-44
2022/02/21 08:11:49;;;;;;;;;;;22.10;45.40;;;;;;5157120;27;19923;-45
2022/02/21 08:14:16;;;;;;;;;;;22.10;45.40;;;;;;5156732;27;19976;-44
2022/02/21 08:16:43;;;;;;;;;;;22.10;45.30;;;;;;5157051;27;19946;-43
2022/02/21 08:19:12;;;;;;;;;;;22.10;45.50;;;;;;5155918;27;19923;-44
2022/02/21 08:21:39;;;;;;;;;;;22.10;45.30;;;;;;5155069;27;19984;-46
2022/02/21 08:24:07;;;;;;;;;;;22.10;45.30;;;;;;5156785;27;19923;-46
2022/02/21 08:26:34;;;;;;;;;;;22.20;45.30;;;;;;5156439;27;19927;-44
2022/02/21 08:29:01;;;;;;;;;;;22.10;45.20;;;;;;5156848;27;19992;-46
2022/02/21 08:31:29;;;;;;;;;;;22.20;45.30;;;;;;5156696;27;19977;-44
2022/02/21 08:33:57;;;;;;;;;;;22.20;45.30;;;;;;5155520;27;19923;-45
2022/02/21 08:36:25;;;;;;;;;;;22.20;45.30;;;;;;5155379;27;19923;-47
2022/02/21 08:38:52;;;;;;;;;;;22.20;45.30;;;;;;5156599;27;20340;-49
2022/02/21 08:41:20;;;;;;;;;;;22.20;45.20;;;;;;5156179;27;19930;-45
2022/02/21 08:43:47;;;;;;;;;;;22.20;45.20;;;;;;5156473;27;19985;-45
2022/02/21 08:46:14;;;;;;;;;;;22.20;45.20;;;;;;5156442;27;19923;-46
2022/02/21 08:49:02;;;;;;;;;;;22.20;45.20;;;;;;5155327;27;19923;-46
2022/02/21 08:51:29;;;;;;;;;;;22.20;45.10;;;;;;5154955;27;19923;-44
2022/02/21 08:53:56;;;;;;;;;;;22.20;45.10;;;;;;5155953;27;20017;-47
2022/02/21 08:56:26;;;;;;;;;;;22.20;45.10;;;;;;5155849;27;19923;-46
2022/02/21 08:58:53;;;;;;;;;;;22.20;45.10;;;;;;5155879;27;20014;-48
2022/02/21 09:01:20;;;;;;;;;;;22.20;45.70;;;;;;5156014;27;19962;-47
2022/02/21 09:03:47;;;;;;;;;;;22.20;45.10;;;;;;5155276;27;19927;-51
2022/02/21 09:06:16;;;;;;;;;;;22.20;45.10;;;;;;5154620;27;20279;-52
2022/02/21 09:08:43;;;;;;;;;;;22.30;45.10;;;;;;5156032;27;19968;-53
2022/02/21 09:11:10;;;;;;;;;;;22.20;45.10;;;;;;5155964;27;19930;-46
2022/02/21 09:13:37;;;;;;;;;;;22.30;45.10;;;;;;5155956;27;19966;-43
2022/02/21 09:16:05;;;;;;;;;;;22.30;45.10;;;;;;5137598;27;19992;-46
2022/02/21 09:18:32;;;;;;;;;;;22.30;45.10;;;;;;5154526;27;20465;-51
2022/02/21 09:21:00;;;;;;;;;;;22.30;45.10;;;;;;5154276;27;19934;-45
2022/02/21 09:23:27;;;;;;;;;;;22.30;45.10;;;;;;5155831;27;19968;-47
2022/02/21 09:25:55;;;;;;;;;;;22.30;45.10;;;;;;5156372;27;19927;-46
2022/02/21 09:28:22;;;;;;;;;;;22.30;45.00;;;;;;5155451;27;19972;-48
2022/02/21 09:30:53;;;;;;;;;;;22.30;45.00;;;;;;5137080;27;20014;-45
2022/02/21 09:33:20;;;;;;;;;;;22.30;45.00;;;;;;5154107;27;19964;-45
2022/02/21 09:35:48;;;;;;;;;;;22.30;45.00;;;;;;5154358;27;19927;-47
2022/02/21 09:38:16;;;;;;;;;;;22.30;45.00;;;;;;5155620;27;19968;-44
2022/02/21 09:40:50;;;;;;;;;;;22.30;45.00;;;;;;5155190;27;20009;-47
2022/02/21 09:43:19;;;;;;;;;;;22.40;45.00;;;;;;5155587;27;19927;-47
2022/02/21 09:45:46;;;;;;;;;;;22.40;44.90;;;;;;5155190;27;19970;-48
2022/02/21 09:48:14;;;;;;;;;;;22.40;44.90;;;;;;5155488;27;20339;-46
2022/02/21 09:50:48;;;;;;;;;;;22.40;44.80;;;;;;5154152;27;19962;-47
2022/02/21 09:53:15;;;;;;;;;;;22.40;44.80;;;;;;5132448;28;20383;-48
2022/02/21 09:55:42;;;;;;;;;;;22.50;44.80;;;;;;5116054;28;19923;-45
2022/02/21 09:58:09;;;;;;;;;;;22.50;44.70;;;;;;5135275;28;19978;-46
2022/02/21 10:00:37;;;;;;;;;;;22.50;44.70;;;;;;5134550;28;20019;-47
2022/02/21 10:03:04;;;;;;;;;;;22.50;44.60;;;;;;5134350;28;20010;-47
2022/02/21 10:05:32;;;;;;;;;;;22.50;44.60;;;;;;5150978;27;19984;-45
2022/02/21 10:08:05;;;;;;;;;;;22.50;44.60;;;;;;5154124;27;19933;-46
2022/02/21 10:10:34;;;;;;;;;;;22.60;44.60;;;;;;5155297;27;19961;-45
2022/02/21 10:13:02;;;;;;;;;;;22.60;44.60;;;;;;5155264;27;19946;-47
2022/02/21 10:15:32;;;;;;;;;;;22.60;44.50;;;;;;5155204;27;19930;-46
2022/02/21 10:18:12;;;;;;;;;;;22.60;44.50;;;;;;5155021;27;19923;-47
2022/02/21 10:20:52;;;;;;;;;;;22.70;44.50;;;;;;5136135;27;20025;-47
2022/02/21 10:23:19;;;;;;;;;;;22.70;44.40;;;;;;5153644;27;19927;-47
2022/02/21 10:25:59;;;;;;;;;;;22.70;44.40;;;;;;5154665;27;19923;-46
2022/02/21 10:28:30;;;;;;;;;;;22.70;44.30;;;;;;5154775;27;20394;-45
2022/02/21 10:31:12;;;;;;;;;;;22.70;44.20;;;;;;5155068;27;19926;-46
2022/02/21 10:34:07;;;;;;;;;;;22.80;44.30;;;;;;5153949;27;21344;-44
2022/02/21 10:36:34;;;;;;;;;;;22.80;44.20;;;;;;5114420;27;19931;-43
2022/02/21 10:39:06;;;;;;;;;;;22.80;44.20;;;;;;5154837;27;19927;-45
2022/02/21 10:41:50;;;;;;;;;;;22.80;44.20;;;;;;5154912;27;19923;-47
2022/02/21 10:44:28;;;;;;;;;;;22.80;44.20;;;;;;5155911;27;19923;-47
2022/02/21 10:47:05;;;;;;;;;;;22.80;44.10;;;;;;5158852;27;19930;-46
2022/02/21 10:49:51;;;;;;;;;;;22.80;44.10;;;;;;5158318;27;20031;-48
2022/02/21 10:52:23;;;;;;;;;;;22.80;44.00;;;;;;5157352;27;20297;-44
2022/02/21 10:54:51;;;;;;;;;;;22.90;44.00;;;;;;5158390;27;20382;-46
2022/02/21 10:57:19;;;;;;;;;;;22.90;44.00;;;;;;5158545;27;19927;-44
2022/02/21 10:59:47;;;;;;;;;;;22.90;44.00;;;;;;5158601;27;19974;-45
2022/02/21 11:02:17;;;;;;;;;;;22.90;44.00;;;;;;5158417;27;19968;-46
2022/02/21 11:04:44;;;;;;;;;;;22.90;43.90;;;;;;5157756;27;19927;-46
2022/02/21 11:07:12;;;;;;;;;;;22.90;43.90;;;;;;5138432;27;19923;-45
2022/02/21 11:09:40;;;;;;;;;;;23.00;44.00;;;;;;5158396;27;20282;-48
2022/02/21 11:12:08;;;;;;;;;;;23.00;43.90;;;;;;5158069;27;19948;-47
2022/02/21 11:14:38;;;;;;;;;;;23.00;43.90;;;;;;5158019;27;19923;-46
2022/02/21 11:17:06;;;;;;;;;;;23.00;43.80;;;;;;5157951;27;20366;-48
2022/02/21 11:19:33;;;;;;;;;;;23.00;43.80;;;;;;5156084;27;19937;-45
2022/02/21 11:22:00;;;;;;;;;;;23.00;43.80;;;;;;5138377;27;19968;-47
2022/02/21 11:24:31;;;;;;;;;;;23.00;43.80;;;;;;5157906;27;20385;-48
2022/02/21 11:27:16;;;;;;;;;;;23.00;43.80;;;;;;5157976;27;19988;-47
2022/02/21 11:29:46;;;;;;;;;;;23.00;43.70;;;;;;5157746;27;19922;-45
2022/02/21 11:32:17;;;;;;;;;;;23.00;43.70;;;;;;5158010;27;19923;-48
2022/02/21 11:35:04;;;;;;;;;;;23.00;43.70;;;;;;5155483;27;19930;-47
2022/02/21 11:37:32;;;;;;;;;;;23.10;43.70;;;;;;5141324;27;19931;-48
2022/02/21 11:39:58;;;;;;;;;;;23.10;43.70;;;;;;5157843;27;20009;-48
2022/02/21 11:42:46;;;;;;;;;;;23.10;43.70;;;;;;5158269;27;20344;-46
2022/02/21 11:45:26;;;;;;;;;;;23.10;43.70;;;;;;5157762;27;19958;-47
2022/02/21 11:48:00;;;;;;;;;;;23.10;43.70;;;;;;5157675;27;19972;-50
2022/02/21 11:50:28;;;;;;;;;;;23.00;43.60;;;;;;5156846;27;20027;-45
2022/02/21 11:52:57;;;;;;;;;;;23.10;43.70;;;;;;5156080;27;19927;-48
2022/02/21 11:55:30;;;;;;;;;;;23.10;43.70;;;;;;5156591;27;19924;-45
2022/02/21 11:57:58;;;;;;;;;;;23.10;43.70;;;;;;5157037;27;20386;-45
2022/02/21 12:00:37;;;;;;;;;;;23.10;43.60;;;;;;5139157;27;20328;-49
2022/02/21 12:03:15;;;;;;;;;;;23.10;43.70;;;;;;5157007;27;19923;-52
2022/02/21 12:05:42;;;;;;;;;;;23.10;43.70;;;;;;5156601;27;19969;-48
2022/02/21 12:08:29;;;;;;;;;;;23.10;43.70;;;;;;5155783;27;19923;-46
2022/02/21 12:11:15;;;;;;;;;;;23.10;43.70;;;;;;5157257;27;20286;-45
2022/02/21 12:13:48;;;;;;;;;;;23.10;43.60;;;;;;5157221;27;19962;-48
2022/02/21 12:16:17;;;;;;;;;;;23.10;43.60;;;;;;5138561;27;19923;-51
2022/02/21 12:18:45;;;;;;;;;;;23.10;43.50;;;;;;5156548;27;19923;-49
2022/02/21 12:21:15;;;;;;;;;;;23.10;43.50;;;;;;5156069;27;19976;-48
2022/02/21 12:24:00;;;;;;;;;;;23.20;43.60;;;;;;5155815;27;19927;-50
2022/02/21 12:26:37;;;;;;;;;;;23.10;43.50;;;;;;5156546;27;19923;-45
2022/02/21 12:29:09;;;;;;;;;;;23.20;43.50;;;;;;5156556;27;19923;-48
2022/02/21 12:31:37;;;;;;;;;;;23.20;43.50;;;;;;5156820;27;19927;-51
2022/02/21 12:34:04;;;;;;;;;;;23.20;43.60;;;;;;5156767;27;19984;-53
2022/02/21 12:36:33;;;;;;;;;;;23.20;43.60;;;;;;5155945;27;19923;-46
2022/02/21 12:39:03;;;;;;;;;;;23.20;43.60;;;;;;5155610;27;19927;-47
2022/02/21 12:41:34;;;;;;;;;;;23.20;43.70;;;;;;5156229;27;20406;-46
2022/02/21 12:44:11;;;;;;;;;;;23.20;43.70;;;;;;5156288;27;19966;-47
2022/02/21 12:46:43;;;;;;;;;;;23.20;43.60;;;;;;5156231;27;19931;-44
2022/02/21 12:49:19;;;;;;;;;;;23.20;43.60;;;;;;5156492;27;20330;-45
2022/02/21 12:51:50;;;;;;;;;;;23.20;43.60;;;;;;5155473;27;19983;-46
2022/02/21 12:54:17;;;;;;;;;;;23.20;43.60;;;;;;5155186;27;19962;-45
2022/02/21 12:57:01;;;;;;;;;;;23.20;43.70;;;;;;5156225;27;19923;-44
2022/02/21 12:59:31;;;;;;;;;;;23.10;43.50;;;;;;5156579;27;20343;-45
2022/02/21 13:02:03;;;;;;;;;;;23.20;43.70;;;;;;5137801;27;19962;-45
2022/02/21 13:04:32;;;;;;;;;;;23.20;43.70;;;;;;5155866;27;19923;-46
2022/02/21 13:07:01;;;;;;;;;;;23.20;43.70;;;;;;5155316;27;20321;-47
2022/02/21 13:09:28;;;;;;;;;;;23.10;43.70;;;;;;5154673;27;19923;-46
2022/02/21 13:11:58;;;;;;;;;;;23.10;43.70;;;;;;5156105;27;19931;-49
2022/02/21 13:14:25;;;;;;;;;;;23.10;43.70;;;;;;5155730;27;19923;-44
2022/02/21 13:16:54;;;;;;;;;;;23.10;43.70;;;;;;5155994;27;19927;-44
2022/02/21 13:19:30;;;;;;;;;;;23.10;43.80;;;;;;5155454;27;19988;-47
2022/02/21 13:22:02;;;;;;;;;;;23.10;43.80;;;;;;5154915;27;19931;-46
2022/02/21 13:24:30;;;;;;;;;;;23.10;43.80;;;;;;5154646;27;19980;-47
2022/02/21 13:26:58;;;;;;;;;;;23.10;43.80;;;;;;5155380;27;20038;-45
2022/02/21 13:29:31;;;;;;;;;;;23.10;43.80;;;;;;5155473;27;19923;-44
2022/02/21 13:31:59;;;;;;;;;;;23.10;43.80;;;;;;5155755;27;19923;-48
2022/02/21 13:34:39;;;;;;;;;;;23.10;43.90;;;;;;5155424;27;19930;-46
2022/02/21 13:37:13;;;;;;;;;;;23.10;43.90;;;;;;5154599;27;19970;-44
2022/02/21 13:39:42;;;;;;;;;;;23.10;43.90;;;;;;5154198;27;19948;-45
2022/02/21 13:42:20;;;;;;;;;;;23.10;43.90;;;;;;5155231;27;19927;-46
2022/02/21 13:44:47;;;;;;;;;;;23.10;44.00;;;;;;5155644;27;20363;-44
2022/02/21 13:47:31;;;;;;;;;;;23.10;43.90;;;;;;5155582;27;19923;-44
2022/02/21 13:49:58;;;;;;;;;;;23.10;44.00;;;;;;5155235;27;20340;-46
2022/02/21 13:52:51;;;;;;;;;;;23.10;44.00;;;;;;5154241;27;20382;-46
2022/02/21 13:55:25;;;;;;;;;;;23.10;44.10;;;;;;5154274;27;19927;-44
2022/02/21 13:58:03;;;;;;;;;;;23.10;44.10;;;;;;5155213;27;19923;-45
2022/02/21 14:00:38;;;;;;;;;;;23.10;44.10;;;;;;5155446;27;19961;-45
2022/02/21 14:03:06;;;;;;;;;;;23.00;44.10;;;;;;5155028;27;19948;-47
2022/02/21 14:05:33;;;;;;;;;;;23.00;44.10;;;;;;5155283;27;19923;-45
2022/02/21 14:08:02;;;;;;;;;;;23.00;44.10;;;;;;5154612;27;19976;-44
2022/02/21 14:10:30;;;;;;;;;;;23.00;44.20;;;;;;5153870;27;19923;-44
2022/02/21 14:12:58;;;;;;;;;;;23.00;44.20;;;;;;5155279;27;19972;-46
2022/02/21 14:15:25;;;;;;;;;;;23.00;44.20;;;;;;5155030;27;19923;-47
2022/02/21 14:17:52;;;;;;;;;;;23.00;44.20;;;;;;5155762;27;19923;-47
2022/02/21 14:20:19;;;;;;;;;;;23.00;44.20;;;;;;5157685;27;19927;-47
2022/02/21 14:22:57;;;;;;;;;;;23.00;44.20;;;;;;5158029;27;19923;-46
2022/02/21 14:25:24;;;;;;;;;;;23.00;44.20;;;;;;5158068;27;19928;-45
2022/02/21 14:27:52;;;;;;;;;;;23.00;44.20;;;;;;5159251;27;20374;-45